sensor_id;sensor_type;location;lat;lon;timestamp;P1;durP1;ratioP1;P2;durP2;ratioP2
51616;SDS011;37697;52.588;13.394;2023-04-15T00:03:33;19.20;;;16.30;;
51616;SDS011;37697;52.588;13.394;2023-04-15T00:08:39;18.00;;;15.30;;
51616;SDS011;37697;52.588;13.394;2023-04-15T00:13:44;20.60;;;16.30;;
51616;SDS011;37697;52.588;13.394;2023-04-15T00:18:49;20.60;;;16.60;;
51616;SDS011;37697;52.588;13.394;2023-04-15T00:23:55;21.50;;;17.70;;
51616;SDS011;37697;52.588;13.394;2023-04-15T00:29:00;21.40;;;18.20;;
51616;SDS011;37697;52.588;13.394;2023-04-15T00:34:06;19.40;;;16.10;;
51616;SDS011;37697;52.588;13.394;2023-04-15T00:39:11;20.60;;;17.10;;
51616;SDS011;37697;52.588;13.394;2023-04-15T00:44:16;22.00;;;16.20;;
51616;SDS011;37697;52.588;13.394;2023-04-15T00:49:22;23.40;;;18.50;;
51616;SDS011;37697;52.588;13.394;2023-04-15T00:54:27;21.00;;;16.70;;
51616;SDS011;37697;52.588;13.394;2023-04-15T00:59:33;24.60;;;19.20;;
51616;SDS011;37697;52.588;13.394;2023-04-15T01:04:38;23.50;;;18.40;;
51616;SDS011;37697;52.588;13.394;2023-04-15T01:09:44;23.50;;;18.90;;
51616;SDS011;37697;52.588;13.394;2023-04-15T01:14:50;23.70;;;18.40;;
51616;SDS011;37697;52.588;13.394;2023-04-15T01:19:56;24.50;;;18.40;;
51616;SDS011;37697;52.588;13.394;2023-04-15T01:25:05;25.30;;;19.10;;
51616;SDS011;37697;52.588;13.394;2023-04-15T01:30:15;25.50;;;19.40;;
51616;SDS011;37697;52.588;13.394;2023-04-15T01:35:21;26.10;;;19.40;;
51616;SDS011;37697;52.588;13.394;2023-04-15T01:40:26;26.70;;;20.50;;
51616;SDS011;37697;52.588;13.394;2023-04-15T01:45:32;23.00;;;16.50;;
51616;SDS011;37697;52.588;13.394;2023-04-15T01:50:37;26.30;;;19.50;;
51616;SDS011;37697;52.588;13.394;2023-04-15T01:55:43;28.40;;;20.60;;
51616;SDS011;37697;52.588;13.394;2023-04-15T02:00:48;28.40;;;20.90;;
51616;SDS011;37697;52.588;13.394;2023-04-15T02:05:54;30.90;;;21.70;;
51616;SDS011;37697;52.588;13.394;2023-04-15T02:10:59;31.50;;;21.70;;
51616;SDS011;37697;52.588;13.394;2023-04-15T02:16:13;28.20;;;20.30;;
51616;SDS011;37697;52.588;13.394;2023-04-15T02:21:20;27.70;;;19.80;;
51616;SDS011;37697;52.588;13.394;2023-04-15T02:26:25;27.10;;;20.80;;
51616;SDS011;37697;52.588;13.394;2023-04-15T02:31:31;28.00;;;20.20;;
51616;SDS011;37697;52.588;13.394;2023-04-15T02:36:39;26.00;;;19.60;;
51616;SDS011;37697;52.588;13.394;2023-04-15T02:41:45;26.40;;;19.30;;
51616;SDS011;37697;52.588;13.394;2023-04-15T02:46:54;26.10;;;19.70;;
51616;SDS011;37697;52.588;13.394;2023-04-15T02:52:00;30.50;;;20.40;;
51616;SDS011;37697;52.588;13.394;2023-04-15T02:57:06;25.80;;;18.50;;
51616;SDS011;37697;52.588;13.394;2023-04-15T03:02:11;28.30;;;19.30;;
51616;SDS011;37697;52.588;13.394;2023-04-15T03:07:17;27.00;;;20.10;;
51616;SDS011;37697;52.588;13.394;2023-04-15T03:12:23;27.60;;;19.80;;
51616;SDS011;37697;52.588;13.394;2023-04-15T03:17:28;26.90;;;19.70;;
51616;SDS011;37697;52.588;13.394;2023-04-15T03:22:33;27.40;;;19.60;;
51616;SDS011;37697;52.588;13.394;2023-04-15T03:27:39;24.80;;;18.40;;
51616;SDS011;37697;52.588;13.394;2023-04-15T03:32:44;25.40;;;18.90;;
51616;SDS011;37697;52.588;13.394;2023-04-15T03:37:50;25.90;;;18.60;;
51616;SDS011;37697;52.588;13.394;2023-04-15T03:42:55;26.40;;;18.40;;
51616;SDS011;37697;52.588;13.394;2023-04-15T03:48:00;24.40;;;18.60;;
51616;SDS011;37697;52.588;13.394;2023-04-15T03:53:20;25.80;;;18.50;;
51616;SDS011;37697;52.588;13.394;2023-04-15T03:58:25;26.30;;;18.60;;
51616;SDS011;37697;52.588;13.394;2023-04-15T04:03:31;19.70;;;14.40;;
51616;SDS011;37697;52.588;13.394;2023-04-15T04:08:37;24.80;;;18.90;;
51616;SDS011;37697;52.588;13.394;2023-04-15T04:13:42;23.10;;;16.40;;
51616;SDS011;37697;52.588;13.394;2023-04-15T04:18:47;20.50;;;15.70;;
51616;SDS011;37697;52.588;13.394;2023-04-15T04:23:53;22.00;;;16.10;;
51616;SDS011;37697;52.588;13.394;2023-04-15T04:28:59;24.30;;;17.80;;
51616;SDS011;37697;52.588;13.394;2023-04-15T04:34:05;23.40;;;16.90;;
51616;SDS011;37697;52.588;13.394;2023-04-15T04:39:10;21.60;;;16.10;;
51616;SDS011;37697;52.588;13.394;2023-04-15T04:44:15;22.40;;;16.90;;
51616;SDS011;37697;52.588;13.394;2023-04-15T04:49:20;23.90;;;18.10;;
51616;SDS011;37697;52.588;13.394;2023-04-15T04:54:26;22.60;;;17.50;;
51616;SDS011;37697;52.588;13.394;2023-04-15T04:59:31;20.10;;;15.60;;
51616;SDS011;37697;52.588;13.394;2023-04-15T05:04:36;19.50;;;15.00;;
51616;SDS011;37697;52.588;13.394;2023-04-15T05:09:42;21.80;;;16.40;;
51616;SDS011;37697;52.588;13.394;2023-04-15T05:14:47;15.80;;;12.40;;
51616;SDS011;37697;52.588;13.394;2023-04-15T05:19:52;20.90;;;14.80;;
51616;SDS011;37697;52.588;13.394;2023-04-15T05:24:58;17.90;;;14.20;;
51616;SDS011;37697;52.588;13.394;2023-04-15T05:30:04;20.70;;;14.60;;
51616;SDS011;37697;52.588;13.394;2023-04-15T05:35:11;20.70;;;15.10;;
51616;SDS011;37697;52.588;13.394;2023-04-15T05:40:16;20.10;;;14.70;;
51616;SDS011;37697;52.588;13.394;2023-04-15T05:45:22;16.80;;;13.50;;
51616;SDS011;37697;52.588;13.394;2023-04-15T05:50:28;18.10;;;14.00;;
51616;SDS011;37697;52.588;13.394;2023-04-15T05:55:34;16.20;;;13.00;;
51616;SDS011;37697;52.588;13.394;2023-04-15T06:00:39;15.10;;;10.60;;
51616;SDS011;37697;52.588;13.394;2023-04-15T06:05:45;17.30;;;13.90;;
51616;SDS011;37697;52.588;13.394;2023-04-15T06:10:50;12.50;;;10.40;;
51616;SDS011;37697;52.588;13.394;2023-04-15T06:15:55;16.60;;;12.90;;
51616;SDS011;37697;52.588;13.394;2023-04-15T06:21:01;15.90;;;11.90;;
51616;SDS011;37697;52.588;13.394;2023-04-15T06:26:07;12.50;;;11.00;;
51616;SDS011;37697;52.588;13.394;2023-04-15T06:31:12;15.00;;;11.10;;
51616;SDS011;37697;52.588;13.394;2023-04-15T06:36:18;13.20;;;10.80;;
51616;SDS011;37697;52.588;13.394;2023-04-15T06:41:24;13.00;;;10.00;;
51616;SDS011;37697;52.588;13.394;2023-04-15T06:46:29;11.00;;;9.70;;
51616;SDS011;37697;52.588;13.394;2023-04-15T06:51:35;12.30;;;9.20;;
51616;SDS011;37697;52.588;13.394;2023-04-15T06:56:40;14.10;;;10.40;;
51616;SDS011;37697;52.588;13.394;2023-04-15T07:01:46;11.40;;;9.40;;
51616;SDS011;37697;52.588;13.394;2023-04-15T07:06:51;9.50;;;8.30;;
51616;SDS011;37697;52.588;13.394;2023-04-15T07:11:58;16.30;;;9.90;;
51616;SDS011;37697;52.588;13.394;2023-04-15T07:17:03;11.10;;;9.20;;
51616;SDS011;37697;52.588;13.394;2023-04-15T07:22:09;11.40;;;9.40;;
51616;SDS011;37697;52.588;13.394;2023-04-15T07:27:14;10.60;;;8.70;;
51616;SDS011;37697;52.588;13.394;2023-04-15T07:32:20;12.00;;;9.20;;
51616;SDS011;37697;52.588;13.394;2023-04-15T07:37:25;10.80;;;8.70;;
51616;SDS011;37697;52.588;13.394;2023-04-15T07:42:31;11.00;;;9.20;;
51616;SDS011;37697;52.588;13.394;2023-04-15T07:47:36;11.60;;;9.90;;
51616;SDS011;37697;52.588;13.394;2023-04-15T07:52:43;13.20;;;9.60;;
51616;SDS011;37697;52.588;13.394;2023-04-15T07:57:49;12.50;;;9.60;;
51616;SDS011;37697;52.588;13.394;2023-04-15T08:02:55;12.50;;;10.10;;
51616;SDS011;37697;52.588;13.394;2023-04-15T08:08:02;11.50;;;10.30;;
51616;SDS011;37697;52.588;13.394;2023-04-15T08:13:07;11.00;;;9.80;;
51616;SDS011;37697;52.588;13.394;2023-04-15T08:18:13;12.60;;;10.50;;
51616;SDS011;37697;52.588;13.394;2023-04-15T08:23:19;11.30;;;10.00;;
51616;SDS011;37697;52.588;13.394;2023-04-15T08:28:24;10.60;;;9.40;;
51616;SDS011;37697;52.588;13.394;2023-04-15T08:33:29;11.40;;;10.10;;
51616;SDS011;37697;52.588;13.394;2023-04-15T08:38:35;13.50;;;10.70;;
51616;SDS011;37697;52.588;13.394;2023-04-15T08:43:41;12.50;;;10.40;;
51616;SDS011;37697;52.588;13.394;2023-04-15T08:48:55;21.50;;;19.50;;
51616;SDS011;37697;52.588;13.394;2023-04-15T08:54:05;12.80;;;10.20;;
51616;SDS011;37697;52.588;13.394;2023-04-15T08:59:13;16.30;;;13.70;;
51616;SDS011;37697;52.588;13.394;2023-04-15T09:04:20;12.50;;;10.60;;
51616;SDS011;37697;52.588;13.394;2023-04-15T09:09:55;13.30;;;9.80;;
51616;SDS011;37697;52.588;13.394;2023-04-15T09:15:00;12.10;;;10.50;;
51616;SDS011;37697;52.588;13.394;2023-04-15T09:20:10;12.80;;;11.30;;
51616;SDS011;37697;52.588;13.394;2023-04-15T09:25:27;12.00;;;10.70;;
51616;SDS011;37697;52.588;13.394;2023-04-15T09:30:37;13.40;;;10.60;;
51616;SDS011;37697;52.588;13.394;2023-04-15T09:35:55;11.60;;;10.40;;
51616;SDS011;37697;52.588;13.394;2023-04-15T09:41:01;12.80;;;10.20;;
51616;SDS011;37697;52.588;13.394;2023-04-15T09:46:19;13.40;;;11.00;;
51616;SDS011;37697;52.588;13.394;2023-04-15T09:51:43;12.10;;;8.60;;
51616;SDS011;37697;52.588;13.394;2023-04-15T09:57:07;12.30;;;9.70;;
51616;SDS011;37697;52.588;13.394;2023-04-15T10:02:14;12.40;;;10.50;;
51616;SDS011;37697;52.588;13.394;2023-04-15T10:07:21;11.60;;;9.70;;
51616;SDS011;37697;52.588;13.394;2023-04-15T10:12:28;12.60;;;10.90;;
51616;SDS011;37697;52.588;13.394;2023-04-15T10:17:36;11.00;;;9.80;;
51616;SDS011;37697;52.588;13.394;2023-04-15T10:22:45;11.10;;;9.60;;
51616;SDS011;37697;52.588;13.394;2023-04-15T10:27:51;11.90;;;10.60;;
51616;SDS011;37697;52.588;13.394;2023-04-15T10:32:57;12.30;;;10.40;;
51616;SDS011;37697;52.588;13.394;2023-04-15T10:38:02;10.80;;;9.70;;
51616;SDS011;37697;52.588;13.394;2023-04-15T10:43:38;11.50;;;10.00;;
51616;SDS011;37697;52.588;13.394;2023-04-15T10:48:48;11.70;;;9.90;;
51616;SDS011;37697;52.588;13.394;2023-04-15T10:53:56;12.40;;;10.60;;
51616;SDS011;37697;52.588;13.394;2023-04-15T10:59:02;11.40;;;9.20;;
51616;SDS011;37697;52.588;13.394;2023-04-15T11:04:10;10.10;;;8.90;;
51616;SDS011;37697;52.588;13.394;2023-04-15T11:14:39;10.80;;;8.70;;
51616;SDS011;37697;52.588;13.394;2023-04-15T11:19:46;11.10;;;9.70;;
51616;SDS011;37697;52.588;13.394;2023-04-15T11:24:51;11.70;;;9.70;;
51616;SDS011;37697;52.588;13.394;2023-04-15T11:29:57;10.30;;;8.30;;
51616;SDS011;37697;52.588;13.394;2023-04-15T11:35:02;10.80;;;8.10;;
51616;SDS011;37697;52.588;13.394;2023-04-15T11:40:09;9.90;;;8.80;;
51616;SDS011;37697;52.588;13.394;2023-04-15T11:45:15;9.60;;;8.60;;
51616;SDS011;37697;52.588;13.394;2023-04-15T11:50:21;10.80;;;8.10;;
51616;SDS011;37697;52.588;13.394;2023-04-15T11:55:27;10.00;;;8.10;;
51616;SDS011;37697;52.588;13.394;2023-04-15T12:00:34;10.40;;;8.50;;
51616;SDS011;37697;52.588;13.394;2023-04-15T12:11:07;10.00;;;8.80;;
51616;SDS011;37697;52.588;13.394;2023-04-15T12:16:13;10.40;;;9.00;;
51616;SDS011;37697;52.588;13.394;2023-04-15T12:21:23;10.40;;;8.90;;
51616;SDS011;37697;52.588;13.394;2023-04-15T12:26:29;11.30;;;8.70;;
51616;SDS011;37697;52.588;13.394;2023-04-15T12:31:42;10.70;;;8.60;;
51616;SDS011;37697;52.588;13.394;2023-04-15T12:36:52;8.00;;;7.10;;
51616;SDS011;37697;52.588;13.394;2023-04-15T12:41:58;10.80;;;8.60;;
51616;SDS011;37697;52.588;13.394;2023-04-15T12:47:04;10.50;;;9.10;;
51616;SDS011;37697;52.588;13.394;2023-04-15T12:52:11;9.90;;;8.00;;
51616;SDS011;37697;52.588;13.394;2023-04-15T12:57:17;10.00;;;7.50;;
51616;SDS011;37697;52.588;13.394;2023-04-15T13:02:23;9.10;;;7.60;;
51616;SDS011;37697;52.588;13.394;2023-04-15T13:07:31;7.70;;;6.80;;
51616;SDS011;37697;52.588;13.394;2023-04-15T13:12:36;9.10;;;7.90;;
51616;SDS011;37697;52.588;13.394;2023-04-15T13:17:42;9.00;;;7.80;;
51616;SDS011;37697;52.588;13.394;2023-04-15T13:22:47;9.00;;;7.70;;
51616;SDS011;37697;52.588;13.394;2023-04-15T13:27:53;9.90;;;8.10;;
51616;SDS011;37697;52.588;13.394;2023-04-15T13:32:58;8.20;;;7.30;;
51616;SDS011;37697;52.588;13.394;2023-04-15T13:38:04;9.10;;;8.20;;
51616;SDS011;37697;52.588;13.394;2023-04-15T13:43:09;9.70;;;8.30;;
51616;SDS011;37697;52.588;13.394;2023-04-15T13:48:15;8.60;;;7.50;;
51616;SDS011;37697;52.588;13.394;2023-04-15T13:53:20;9.30;;;7.40;;
51616;SDS011;37697;52.588;13.394;2023-04-15T13:58:42;9.60;;;7.90;;
51616;SDS011;37697;52.588;13.394;2023-04-15T14:03:47;9.70;;;7.60;;
51616;SDS011;37697;52.588;13.394;2023-04-15T14:08:53;8.30;;;6.80;;
51616;SDS011;37697;52.588;13.394;2023-04-15T14:13:58;9.40;;;7.90;;
51616;SDS011;37697;52.588;13.394;2023-04-15T14:19:04;7.90;;;6.80;;
51616;SDS011;37697;52.588;13.394;2023-04-15T14:24:09;6.10;;;4.80;;
51616;SDS011;37697;52.588;13.394;2023-04-15T14:29:15;7.60;;;6.10;;
51616;SDS011;37697;52.588;13.394;2023-04-15T14:34:20;8.30;;;6.70;;
51616;SDS011;37697;52.588;13.394;2023-04-15T14:39:28;7.20;;;6.00;;
51616;SDS011;37697;52.588;13.394;2023-04-15T14:44:33;7.40;;;6.40;;
51616;SDS011;37697;52.588;13.394;2023-04-15T14:49:38;7.40;;;5.50;;
51616;SDS011;37697;52.588;13.394;2023-04-15T14:54:44;6.90;;;5.90;;
51616;SDS011;37697;52.588;13.394;2023-04-15T14:59:49;7.90;;;5.80;;
51616;SDS011;37697;52.588;13.394;2023-04-15T15:04:59;6.60;;;5.90;;
51616;SDS011;37697;52.588;13.394;2023-04-15T15:10:06;8.00;;;6.60;;
51616;SDS011;37697;52.588;13.394;2023-04-15T15:15:13;9.30;;;6.90;;
51616;SDS011;37697;52.588;13.394;2023-04-15T15:20:31;6.90;;;6.00;;
51616;SDS011;37697;52.588;13.394;2023-04-15T15:25:38;6.90;;;5.50;;
51616;SDS011;37697;52.588;13.394;2023-04-15T15:30:43;9.10;;;7.90;;
51616;SDS011;37697;52.588;13.394;2023-04-15T15:35:48;7.50;;;6.20;;
51616;SDS011;37697;52.588;13.394;2023-04-15T15:40:54;7.40;;;5.00;;
51616;SDS011;37697;52.588;13.394;2023-04-15T15:45:59;5.30;;;4.50;;
51616;SDS011;37697;52.588;13.394;2023-04-15T15:51:08;5.70;;;5.00;;
51616;SDS011;37697;52.588;13.394;2023-04-15T15:56:13;7.00;;;4.40;;
51616;SDS011;37697;52.588;13.394;2023-04-15T16:01:18;6.10;;;4.80;;
51616;SDS011;37697;52.588;13.394;2023-04-15T16:06:24;5.90;;;4.70;;
51616;SDS011;37697;52.588;13.394;2023-04-15T16:11:30;6.50;;;4.70;;
51616;SDS011;37697;52.588;13.394;2023-04-15T16:16:35;5.40;;;4.30;;
51616;SDS011;37697;52.588;13.394;2023-04-15T16:21:41;5.70;;;4.60;;
51616;SDS011;37697;52.588;13.394;2023-04-15T16:26:47;6.40;;;4.90;;
51616;SDS011;37697;52.588;13.394;2023-04-15T16:31:53;8.00;;;5.20;;
51616;SDS011;37697;52.588;13.394;2023-04-15T16:36:59;5.90;;;4.40;;
51616;SDS011;37697;52.588;13.394;2023-04-15T16:42:05;6.00;;;4.60;;
51616;SDS011;37697;52.588;13.394;2023-04-15T16:47:10;6.40;;;4.60;;
51616;SDS011;37697;52.588;13.394;2023-04-15T16:52:16;5.00;;;4.10;;
51616;SDS011;37697;52.588;13.394;2023-04-15T16:57:21;4.60;;;3.70;;
51616;SDS011;37697;52.588;13.394;2023-04-15T17:02:34;6.20;;;3.90;;
51616;SDS011;37697;52.588;13.394;2023-04-15T17:07:39;4.90;;;3.80;;
51616;SDS011;37697;52.588;13.394;2023-04-15T17:12:45;5.00;;;4.30;;
51616;SDS011;37697;52.588;13.394;2023-04-15T17:17:50;5.70;;;4.00;;
51616;SDS011;37697;52.588;13.394;2023-04-15T17:22:55;5.00;;;4.10;;
51616;SDS011;37697;52.588;13.394;2023-04-15T17:28:01;5.60;;;4.40;;
51616;SDS011;37697;52.588;13.394;2023-04-15T17:33:06;7.00;;;5.50;;
51616;SDS011;37697;52.588;13.394;2023-04-15T17:38:32;7.50;;;5.90;;
51616;SDS011;37697;52.588;13.394;2023-04-15T17:43:37;7.40;;;6.00;;
51616;SDS011;37697;52.588;13.394;2023-04-15T17:48:43;5.70;;;5.10;;
51616;SDS011;37697;52.588;13.394;2023-04-15T17:53:48;6.00;;;5.40;;
51616;SDS011;37697;52.588;13.394;2023-04-15T17:58:54;5.90;;;5.30;;
51616;SDS011;37697;52.588;13.394;2023-04-15T18:04:01;5.60;;;5.10;;
51616;SDS011;37697;52.588;13.394;2023-04-15T18:09:07;6.50;;;5.70;;
51616;SDS011;37697;52.588;13.394;2023-04-15T18:14:12;6.20;;;5.60;;
51616;SDS011;37697;52.588;13.394;2023-04-15T18:19:36;8.20;;;7.40;;
51616;SDS011;37697;52.588;13.394;2023-04-15T18:24:41;8.70;;;7.70;;
51616;SDS011;37697;52.588;13.394;2023-04-15T18:29:47;8.90;;;7.70;;
51616;SDS011;37697;52.588;13.394;2023-04-15T18:34:53;9.00;;;7.20;;
51616;SDS011;37697;52.588;13.394;2023-04-15T18:39:59;8.80;;;7.90;;
51616;SDS011;37697;52.588;13.394;2023-04-15T18:45:05;9.20;;;8.30;;
51616;SDS011;37697;52.588;13.394;2023-04-15T18:50:11;9.10;;;8.20;;
51616;SDS011;37697;52.588;13.394;2023-04-15T18:55:16;9.30;;;8.30;;
51616;SDS011;37697;52.588;13.394;2023-04-15T19:00:22;9.30;;;8.30;;
51616;SDS011;37697;52.588;13.394;2023-04-15T19:05:27;9.40;;;8.30;;
51616;SDS011;37697;52.588;13.394;2023-04-15T19:10:34;10.90;;;9.80;;
51616;SDS011;37697;52.588;13.394;2023-04-15T19:15:39;9.50;;;8.40;;
51616;SDS011;37697;52.588;13.394;2023-04-15T19:20:44;11.50;;;10.30;;
51616;SDS011;37697;52.588;13.394;2023-04-15T19:25:53;10.70;;;9.60;;
51616;SDS011;37697;52.588;13.394;2023-04-15T19:30:59;12.00;;;10.80;;
51616;SDS011;37697;52.588;13.394;2023-04-15T19:36:05;11.00;;;9.80;;
51616;SDS011;37697;52.588;13.394;2023-04-15T19:41:11;11.30;;;10.20;;
51616;SDS011;37697;52.588;13.394;2023-04-15T19:46:17;11.90;;;10.60;;
51616;SDS011;37697;52.588;13.394;2023-04-15T19:51:23;11.70;;;10.50;;
51616;SDS011;37697;52.588;13.394;2023-04-15T19:56:29;11.20;;;10.00;;
51616;SDS011;37697;52.588;13.394;2023-04-15T20:01:37;11.20;;;10.00;;
51616;SDS011;37697;52.588;13.394;2023-04-15T20:06:42;11.20;;;10.00;;
51616;SDS011;37697;52.588;13.394;2023-04-15T20:11:48;11.80;;;10.60;;
51616;SDS011;37697;52.588;13.394;2023-04-15T20:17:13;11.80;;;10.10;;
51616;SDS011;37697;52.588;13.394;2023-04-15T20:22:19;10.30;;;9.20;;
51616;SDS011;37697;52.588;13.394;2023-04-15T20:27:24;13.60;;;11.30;;
51616;SDS011;37697;52.588;13.394;2023-04-15T20:32:30;13.30;;;10.80;;
51616;SDS011;37697;52.588;13.394;2023-04-15T20:37:41;11.50;;;10.10;;
51616;SDS011;37697;52.588;13.394;2023-04-15T20:42:47;10.80;;;9.70;;
51616;SDS011;37697;52.588;13.394;2023-04-15T20:47:53;10.70;;;9.30;;
51616;SDS011;37697;52.588;13.394;2023-04-15T20:52:59;12.40;;;10.80;;
51616;SDS011;37697;52.588;13.394;2023-04-15T20:58:05;10.90;;;9.80;;
51616;SDS011;37697;52.588;13.394;2023-04-15T21:03:10;12.20;;;10.90;;
51616;SDS011;37697;52.588;13.394;2023-04-15T21:08:16;13.60;;;12.20;;
51616;SDS011;37697;52.588;13.394;2023-04-15T21:13:22;15.10;;;12.30;;
51616;SDS011;37697;52.588;13.394;2023-04-15T21:18:28;12.80;;;11.30;;
51616;SDS011;37697;52.588;13.394;2023-04-15T21:23:34;14.30;;;11.10;;
51616;SDS011;37697;52.588;13.394;2023-04-15T21:28:39;13.10;;;11.70;;
51616;SDS011;37697;52.588;13.394;2023-04-15T21:33:45;13.40;;;11.30;;
51616;SDS011;37697;52.588;13.394;2023-04-15T21:38:50;12.20;;;10.70;;
51616;SDS011;37697;52.588;13.394;2023-04-15T21:43:56;12.70;;;11.00;;
51616;SDS011;37697;52.588;13.394;2023-04-15T21:49:01;12.80;;;10.80;;
51616;SDS011;37697;52.588;13.394;2023-04-15T21:54:07;11.40;;;10.20;;
51616;SDS011;37697;52.588;13.394;2023-04-15T21:59:12;12.80;;;11.40;;
51616;SDS011;37697;52.588;13.394;2023-04-15T22:04:18;13.10;;;11.70;;
51616;SDS011;37697;52.588;13.394;2023-04-15T22:09:23;12.30;;;11.00;;
51616;SDS011;37697;52.588;13.394;2023-04-15T22:14:29;14.80;;;12.40;;
51616;SDS011;37697;52.588;13.394;2023-04-15T22:19:35;14.20;;;12.40;;
51616;SDS011;37697;52.588;13.394;2023-04-15T22:24:40;13.50;;;11.00;;
51616;SDS011;37697;52.588;13.394;2023-04-15T22:29:45;14.90;;;13.10;;
51616;SDS011;37697;52.588;13.394;2023-04-15T22:34:51;14.40;;;12.90;;
51616;SDS011;37697;52.588;13.394;2023-04-15T22:39:57;17.30;;;13.00;;
51616;SDS011;37697;52.588;13.394;2023-04-15T22:45:02;15.20;;;13.60;;
51616;SDS011;37697;52.588;13.394;2023-04-15T22:50:09;13.00;;;10.60;;
51616;SDS011;37697;52.588;13.394;2023-04-15T22:55:15;15.70;;;13.20;;
51616;SDS011;37697;52.588;13.394;2023-04-15T23:00:20;16.20;;;13.80;;
51616;SDS011;37697;52.588;13.394;2023-04-15T23:05:26;15.90;;;14.30;;
51616;SDS011;37697;52.588;13.394;2023-04-15T23:10:31;14.70;;;11.90;;
51616;SDS011;37697;52.588;13.394;2023-04-15T23:15:37;16.60;;;13.40;;
51616;SDS011;37697;52.588;13.394;2023-04-15T23:20:42;14.00;;;12.10;;
51616;SDS011;37697;52.588;13.394;2023-04-15T23:25:48;15.60;;;13.90;;
51616;SDS011;37697;52.588;13.394;2023-04-15T23:30:53;15.90;;;13.20;;
51616;SDS011;37697;52.588;13.394;2023-04-15T23:36:01;16.40;;;14.20;;
51616;SDS011;37697;52.588;13.394;2023-04-15T23:41:07;15.20;;;13.70;;
51616;SDS011;37697;52.588;13.394;2023-04-15T23:46:14;16.40;;;13.70;;
51616;SDS011;37697;52.588;13.394;2023-04-15T23:51:20;16.20;;;14.50;;
51616;SDS011;37697;52.588;13.394;2023-04-15T23:56:25;15.20;;;13.60;;
